sensor_id;sensor_type;location;lat;lon;timestamp;P1;durP1;ratioP1;P2;durP2;ratioP2
57317;SDS011;43157;50.982;18.132;2023-06-14T00:01:46;11.80;;;4.20;;
57317;SDS011;43157;50.982;18.132;2023-06-14T00:04:12;9.70;;;3.80;;
57317;SDS011;43157;50.982;18.132;2023-06-14T00:06:39;11.60;;;4.30;;
57317;SDS011;43157;50.982;18.132;2023-06-14T00:09:05;10.20;;;4.10;;
57317;SDS011;43157;50.982;18.132;2023-06-14T00:11:34;11.40;;;4.00;;
57317;SDS011;43157;50.982;18.132;2023-06-14T00:14:00;11.40;;;4.50;;
57317;SDS011;43157;50.982;18.132;2023-06-14T00:16:26;10.50;;;4.00;;
57317;SDS011;43157;50.982;18.132;2023-06-14T00:18:53;12.70;;;4.30;;
57317;SDS011;43157;50.982;18.132;2023-06-14T00:21:19;10.60;;;3.80;;
57317;SDS011;43157;50.982;18.132;2023-06-14T00:23:45;10.50;;;3.80;;
57317;SDS011;43157;50.982;18.132;2023-06-14T00:26:11;13.10;;;4.30;;
57317;SDS011;43157;50.982;18.132;2023-06-14T00:28:37;12.30;;;3.80;;
57317;SDS011;43157;50.982;18.132;2023-06-14T00:31:04;12.10;;;4.10;;
57317;SDS011;43157;50.982;18.132;2023-06-14T00:33:30;10.90;;;3.90;;
57317;SDS011;43157;50.982;18.132;2023-06-14T00:35:56;10.40;;;4.10;;
57317;SDS011;43157;50.982;18.132;2023-06-14T00:38:23;10.00;;;3.30;;
57317;SDS011;43157;50.982;18.132;2023-06-14T00:40:49;10.30;;;3.30;;
57317;SDS011;43157;50.982;18.132;2023-06-14T00:43:15;11.90;;;4.10;;
57317;SDS011;43157;50.982;18.132;2023-06-14T00:45:41;10.70;;;3.90;;
57317;SDS011;43157;50.982;18.132;2023-06-14T00:48:08;11.30;;;3.90;;
57317;SDS011;43157;50.982;18.132;2023-06-14T00:50:34;9.90;;;3.60;;
57317;SDS011;43157;50.982;18.132;2023-06-14T00:53:01;12.30;;;3.70;;
57317;SDS011;43157;50.982;18.132;2023-06-14T00:55:28;11.10;;;3.70;;
57317;SDS011;43157;50.982;18.132;2023-06-14T00:57:55;9.50;;;3.30;;
57317;SDS011;43157;50.982;18.132;2023-06-14T01:00:21;10.00;;;3.20;;
57317;SDS011;43157;50.982;18.132;2023-06-14T01:02:47;12.30;;;3.80;;
57317;SDS011;43157;50.982;18.132;2023-06-14T01:05:14;13.40;;;3.80;;
57317;SDS011;43157;50.982;18.132;2023-06-14T01:07:55;10.60;;;4.30;;
57317;SDS011;43157;50.982;18.132;2023-06-14T01:13:33;13.90;;;3.90;;
57317;SDS011;43157;50.982;18.132;2023-06-14T01:16:01;10.80;;;4.30;;
57317;SDS011;43157;50.982;18.132;2023-06-14T01:18:28;9.30;;;3.50;;
57317;SDS011;43157;50.982;18.132;2023-06-14T01:20:55;10.90;;;3.90;;
57317;SDS011;43157;50.982;18.132;2023-06-14T01:23:21;9.90;;;3.20;;
57317;SDS011;43157;50.982;18.132;2023-06-14T01:25:48;9.80;;;3.50;;
57317;SDS011;43157;50.982;18.132;2023-06-14T01:28:18;12.50;;;3.60;;
57317;SDS011;43157;50.982;18.132;2023-06-14T01:30:46;10.90;;;4.30;;
57317;SDS011;43157;50.982;18.132;2023-06-14T01:33:14;10.20;;;3.90;;
57317;SDS011;43157;50.982;18.132;2023-06-14T01:35:45;11.30;;;4.00;;
57317;SDS011;43157;50.982;18.132;2023-06-14T01:38:12;11.20;;;4.10;;
57317;SDS011;43157;50.982;18.132;2023-06-14T01:40:39;10.90;;;3.80;;
57317;SDS011;43157;50.982;18.132;2023-06-14T01:43:05;9.80;;;3.50;;
57317;SDS011;43157;50.982;18.132;2023-06-14T01:45:31;12.60;;;4.60;;
57317;SDS011;43157;50.982;18.132;2023-06-14T01:47:58;10.70;;;3.90;;
57317;SDS011;43157;50.982;18.132;2023-06-14T01:50:29;10.40;;;3.90;;
57317;SDS011;43157;50.982;18.132;2023-06-14T01:52:55;13.20;;;4.10;;
57317;SDS011;43157;50.982;18.132;2023-06-14T01:55:22;12.70;;;4.20;;
57317;SDS011;43157;50.982;18.132;2023-06-14T01:57:48;10.10;;;3.40;;
57317;SDS011;43157;50.982;18.132;2023-06-14T02:00:14;9.30;;;4.10;;
57317;SDS011;43157;50.982;18.132;2023-06-14T02:02:41;9.40;;;3.50;;
57317;SDS011;43157;50.982;18.132;2023-06-14T02:05:07;9.10;;;3.40;;
57317;SDS011;43157;50.982;18.132;2023-06-14T02:07:34;9.90;;;4.00;;
57317;SDS011;43157;50.982;18.132;2023-06-14T02:10:00;10.70;;;3.80;;
57317;SDS011;43157;50.982;18.132;2023-06-14T02:12:26;11.70;;;4.10;;
57317;SDS011;43157;50.982;18.132;2023-06-14T02:14:53;10.20;;;4.10;;
57317;SDS011;43157;50.982;18.132;2023-06-14T02:17:19;11.90;;;4.50;;
57317;SDS011;43157;50.982;18.132;2023-06-14T02:19:48;13.00;;;3.90;;
57317;SDS011;43157;50.982;18.132;2023-06-14T02:22:14;9.50;;;3.60;;
57317;SDS011;43157;50.982;18.132;2023-06-14T02:24:43;12.40;;;4.20;;
57317;SDS011;43157;50.982;18.132;2023-06-14T02:27:09;11.00;;;4.40;;
57317;SDS011;43157;50.982;18.132;2023-06-14T02:29:38;12.60;;;4.40;;
57317;SDS011;43157;50.982;18.132;2023-06-14T02:32:04;15.10;;;4.70;;
57317;SDS011;43157;50.982;18.132;2023-06-14T02:34:33;11.40;;;4.70;;
57317;SDS011;43157;50.982;18.132;2023-06-14T02:37:00;11.60;;;4.60;;
57317;SDS011;43157;50.982;18.132;2023-06-14T02:39:28;9.40;;;4.00;;
57317;SDS011;43157;50.982;18.132;2023-06-14T02:41:54;10.20;;;4.00;;
57317;SDS011;43157;50.982;18.132;2023-06-14T02:44:24;11.20;;;4.70;;
57317;SDS011;43157;50.982;18.132;2023-06-14T02:46:52;11.10;;;4.20;;
57317;SDS011;43157;50.982;18.132;2023-06-14T02:49:19;11.10;;;4.40;;
57317;SDS011;43157;50.982;18.132;2023-06-14T02:51:45;12.50;;;4.60;;
57317;SDS011;43157;50.982;18.132;2023-06-14T02:54:11;10.60;;;3.80;;
57317;SDS011;43157;50.982;18.132;2023-06-14T02:56:38;11.60;;;4.50;;
57317;SDS011;43157;50.982;18.132;2023-06-14T02:59:04;11.20;;;4.30;;
57317;SDS011;43157;50.982;18.132;2023-06-14T03:01:30;12.70;;;4.20;;
57317;SDS011;43157;50.982;18.132;2023-06-14T03:03:59;12.40;;;4.70;;
57317;SDS011;43157;50.982;18.132;2023-06-14T03:06:27;13.50;;;5.70;;
57317;SDS011;43157;50.982;18.132;2023-06-14T03:08:59;13.40;;;5.50;;
57317;SDS011;43157;50.982;18.132;2023-06-14T03:11:26;14.50;;;6.00;;
57317;SDS011;43157;50.982;18.132;2023-06-14T03:13:52;14.60;;;6.10;;
57317;SDS011;43157;50.982;18.132;2023-06-14T03:16:19;15.10;;;5.90;;
57317;SDS011;43157;50.982;18.132;2023-06-14T03:18:52;16.10;;;6.10;;
57317;SDS011;43157;50.982;18.132;2023-06-14T03:21:19;12.40;;;5.60;;
57317;SDS011;43157;50.982;18.132;2023-06-14T03:23:46;12.10;;;5.70;;
57317;SDS011;43157;50.982;18.132;2023-06-14T03:26:13;13.70;;;6.20;;
57317;SDS011;43157;50.982;18.132;2023-06-14T03:28:40;18.10;;;6.40;;
57317;SDS011;43157;50.982;18.132;2023-06-14T03:31:07;13.40;;;6.10;;
57317;SDS011;43157;50.982;18.132;2023-06-14T03:33:34;17.40;;;6.00;;
57317;SDS011;43157;50.982;18.132;2023-06-14T03:36:01;13.10;;;5.90;;
57317;SDS011;43157;50.982;18.132;2023-06-14T03:38:27;12.30;;;5.80;;
57317;SDS011;43157;50.982;18.132;2023-06-14T03:40:53;15.80;;;6.50;;
57317;SDS011;43157;50.982;18.132;2023-06-14T03:43:19;14.60;;;6.50;;
57317;SDS011;43157;50.982;18.132;2023-06-14T03:45:46;15.20;;;6.70;;
57317;SDS011;43157;50.982;18.132;2023-06-14T03:48:12;13.90;;;6.50;;
57317;SDS011;43157;50.982;18.132;2023-06-14T03:50:38;16.10;;;6.70;;
57317;SDS011;43157;50.982;18.132;2023-06-14T03:53:05;16.20;;;6.40;;
57317;SDS011;43157;50.982;18.132;2023-06-14T03:55:31;14.50;;;6.20;;
57317;SDS011;43157;50.982;18.132;2023-06-14T03:57:58;13.90;;;7.00;;
57317;SDS011;43157;50.982;18.132;2023-06-14T04:14:10;13.80;;;7.00;;
57317;SDS011;43157;50.982;18.132;2023-06-14T04:16:36;17.30;;;7.80;;
57317;SDS011;43157;50.982;18.132;2023-06-14T04:19:02;18.00;;;7.00;;
57317;SDS011;43157;50.982;18.132;2023-06-14T04:21:29;14.10;;;7.50;;
57317;SDS011;43157;50.982;18.132;2023-06-14T04:23:55;16.10;;;7.30;;
57317;SDS011;43157;50.982;18.132;2023-06-14T04:26:21;17.70;;;8.70;;
57317;SDS011;43157;50.982;18.132;2023-06-14T04:28:49;16.80;;;7.90;;
57317;SDS011;43157;50.982;18.132;2023-06-14T04:31:16;14.60;;;6.80;;
57317;SDS011;43157;50.982;18.132;2023-06-14T04:33:42;15.40;;;8.10;;
57317;SDS011;43157;50.982;18.132;2023-06-14T04:36:12;15.10;;;7.60;;
57317;SDS011;43157;50.982;18.132;2023-06-14T04:38:39;14.80;;;8.00;;
57317;SDS011;43157;50.982;18.132;2023-06-14T04:41:05;16.40;;;8.20;;
57317;SDS011;43157;50.982;18.132;2023-06-14T04:43:31;15.70;;;8.60;;
57317;SDS011;43157;50.982;18.132;2023-06-14T04:46:06;17.10;;;7.90;;
57317;SDS011;43157;50.982;18.132;2023-06-14T04:48:39;19.80;;;8.00;;
57317;SDS011;43157;50.982;18.132;2023-06-14T04:51:09;16.20;;;7.90;;
57317;SDS011;43157;50.982;18.132;2023-06-14T04:53:34;14.30;;;7.40;;
57317;SDS011;43157;50.982;18.132;2023-06-14T04:56:01;16.50;;;8.80;;
57317;SDS011;43157;50.982;18.132;2023-06-14T04:58:27;16.60;;;7.60;;
57317;SDS011;43157;50.982;18.132;2023-06-14T05:00:54;16.70;;;8.50;;
57317;SDS011;43157;50.982;18.132;2023-06-14T05:03:21;15.80;;;7.70;;
57317;SDS011;43157;50.982;18.132;2023-06-14T05:05:49;14.80;;;7.60;;
57317;SDS011;43157;50.982;18.132;2023-06-14T05:08:16;17.80;;;8.30;;
57317;SDS011;43157;50.982;18.132;2023-06-14T05:10:42;14.70;;;7.60;;
57317;SDS011;43157;50.982;18.132;2023-06-14T05:13:08;16.30;;;7.30;;
57317;SDS011;43157;50.982;18.132;2023-06-14T05:15:35;16.60;;;8.00;;
57317;SDS011;43157;50.982;18.132;2023-06-14T05:18:02;17.90;;;6.80;;
57317;SDS011;43157;50.982;18.132;2023-06-14T05:20:28;15.50;;;6.70;;
57317;SDS011;43157;50.982;18.132;2023-06-14T05:22:54;13.30;;;5.90;;
57317;SDS011;43157;50.982;18.132;2023-06-14T05:25:22;14.20;;;6.00;;
57317;SDS011;43157;50.982;18.132;2023-06-14T05:27:48;13.50;;;6.10;;
57317;SDS011;43157;50.982;18.132;2023-06-14T05:30:15;15.10;;;6.60;;
57317;SDS011;43157;50.982;18.132;2023-06-14T05:32:41;13.60;;;6.70;;
57317;SDS011;43157;50.982;18.132;2023-06-14T05:35:07;15.10;;;6.50;;
57317;SDS011;43157;50.982;18.132;2023-06-14T05:37:33;17.80;;;6.80;;
57317;SDS011;43157;50.982;18.132;2023-06-14T05:40:00;14.50;;;7.10;;
57317;SDS011;43157;50.982;18.132;2023-06-14T05:42:26;15.60;;;6.90;;
57317;SDS011;43157;50.982;18.132;2023-06-14T05:44:53;14.90;;;7.30;;
57317;SDS011;43157;50.982;18.132;2023-06-14T05:47:19;13.60;;;6.30;;
57317;SDS011;43157;50.982;18.132;2023-06-14T05:49:45;12.80;;;6.40;;
57317;SDS011;43157;50.982;18.132;2023-06-14T05:52:12;14.30;;;6.90;;
57317;SDS011;43157;50.982;18.132;2023-06-14T05:54:38;13.70;;;7.00;;
57317;SDS011;43157;50.982;18.132;2023-06-14T05:57:04;16.40;;;7.20;;
57317;SDS011;43157;50.982;18.132;2023-06-14T05:59:31;15.20;;;6.00;;
57317;SDS011;43157;50.982;18.132;2023-06-14T06:01:57;14.20;;;6.90;;
57317;SDS011;43157;50.982;18.132;2023-06-14T06:04:24;16.00;;;6.90;;
57317;SDS011;43157;50.982;18.132;2023-06-14T06:06:50;16.50;;;6.80;;
57317;SDS011;43157;50.982;18.132;2023-06-14T06:09:16;16.50;;;7.00;;
57317;SDS011;43157;50.982;18.132;2023-06-14T06:11:42;15.20;;;6.80;;
57317;SDS011;43157;50.982;18.132;2023-06-14T06:14:09;17.40;;;7.20;;
57317;SDS011;43157;50.982;18.132;2023-06-14T06:16:34;14.40;;;6.50;;
57317;SDS011;43157;50.982;18.132;2023-06-14T06:19:00;15.90;;;7.10;;
57317;SDS011;43157;50.982;18.132;2023-06-14T06:21:27;13.00;;;6.10;;
57317;SDS011;43157;50.982;18.132;2023-06-14T06:23:53;16.60;;;7.20;;
57317;SDS011;43157;50.982;18.132;2023-06-14T06:26:22;16.30;;;6.80;;
57317;SDS011;43157;50.982;18.132;2023-06-14T06:28:48;14.30;;;6.80;;
57317;SDS011;43157;50.982;18.132;2023-06-14T06:31:14;15.00;;;6.80;;
57317;SDS011;43157;50.982;18.132;2023-06-14T06:33:40;16.60;;;7.40;;
57317;SDS011;43157;50.982;18.132;2023-06-14T06:36:06;14.80;;;6.70;;
57317;SDS011;43157;50.982;18.132;2023-06-14T06:38:33;16.30;;;6.40;;
57317;SDS011;43157;50.982;18.132;2023-06-14T06:40:59;11.90;;;5.90;;
57317;SDS011;43157;50.982;18.132;2023-06-14T06:43:25;13.70;;;6.10;;
57317;SDS011;43157;50.982;18.132;2023-06-14T06:45:51;14.80;;;5.30;;
57317;SDS011;43157;50.982;18.132;2023-06-14T06:48:18;12.00;;;5.20;;
57317;SDS011;43157;50.982;18.132;2023-06-14T06:50:44;12.40;;;5.30;;
57317;SDS011;43157;50.982;18.132;2023-06-14T06:53:10;13.00;;;5.50;;
57317;SDS011;43157;50.982;18.132;2023-06-14T06:55:36;15.30;;;6.30;;
57317;SDS011;43157;50.982;18.132;2023-06-14T06:58:03;14.00;;;5.80;;
57317;SDS011;43157;50.982;18.132;2023-06-14T07:00:30;13.30;;;6.10;;
57317;SDS011;43157;50.982;18.132;2023-06-14T07:02:56;13.00;;;6.00;;
57317;SDS011;43157;50.982;18.132;2023-06-14T07:05:23;12.80;;;5.90;;
57317;SDS011;43157;50.982;18.132;2023-06-14T07:07:49;13.80;;;6.20;;
57317;SDS011;43157;50.982;18.132;2023-06-14T07:10:15;15.60;;;5.40;;
57317;SDS011;43157;50.982;18.132;2023-06-14T07:12:41;11.90;;;5.50;;
57317;SDS011;43157;50.982;18.132;2023-06-14T07:15:08;13.70;;;5.60;;
57317;SDS011;43157;50.982;18.132;2023-06-14T07:17:34;13.60;;;6.40;;
57317;SDS011;43157;50.982;18.132;2023-06-14T07:20:01;12.40;;;5.60;;
57317;SDS011;43157;50.982;18.132;2023-06-14T07:22:41;13.20;;;5.70;;
57317;SDS011;43157;50.982;18.132;2023-06-14T07:25:08;11.80;;;4.60;;
57317;SDS011;43157;50.982;18.132;2023-06-14T07:27:34;13.40;;;5.00;;
57317;SDS011;43157;50.982;18.132;2023-06-14T07:30:00;12.10;;;5.50;;
57317;SDS011;43157;50.982;18.132;2023-06-14T07:32:27;12.00;;;5.00;;
57317;SDS011;43157;50.982;18.132;2023-06-14T07:34:53;10.90;;;5.30;;
57317;SDS011;43157;50.982;18.132;2023-06-14T07:37:19;11.80;;;4.90;;
57317;SDS011;43157;50.982;18.132;2023-06-14T07:39:45;13.50;;;5.00;;
57317;SDS011;43157;50.982;18.132;2023-06-14T07:42:11;13.10;;;4.80;;
57317;SDS011;43157;50.982;18.132;2023-06-14T07:44:38;12.30;;;5.00;;
57317;SDS011;43157;50.982;18.132;2023-06-14T07:47:04;11.10;;;5.00;;
57317;SDS011;43157;50.982;18.132;2023-06-14T07:49:30;11.70;;;4.60;;
57317;SDS011;43157;50.982;18.132;2023-06-14T07:51:56;11.90;;;4.40;;
57317;SDS011;43157;50.982;18.132;2023-06-14T07:54:23;11.70;;;5.00;;
57317;SDS011;43157;50.982;18.132;2023-06-14T07:56:52;14.60;;;6.40;;
57317;SDS011;43157;50.982;18.132;2023-06-14T07:59:18;13.90;;;5.50;;
57317;SDS011;43157;50.982;18.132;2023-06-14T08:01:44;10.80;;;5.10;;
57317;SDS011;43157;50.982;18.132;2023-06-14T08:04:13;12.80;;;4.70;;
57317;SDS011;43157;50.982;18.132;2023-06-14T08:06:39;10.90;;;6.30;;
57317;SDS011;43157;50.982;18.132;2023-06-14T08:09:06;13.20;;;6.40;;
57317;SDS011;43157;50.982;18.132;2023-06-14T08:11:32;13.00;;;5.40;;
57317;SDS011;43157;50.982;18.132;2023-06-14T08:13:58;17.80;;;8.90;;
57317;SDS011;43157;50.982;18.132;2023-06-14T08:16:24;11.70;;;5.60;;
57317;SDS011;43157;50.982;18.132;2023-06-14T08:18:51;12.20;;;6.10;;
57317;SDS011;43157;50.982;18.132;2023-06-14T08:21:17;11.80;;;5.50;;
57317;SDS011;43157;50.982;18.132;2023-06-14T08:23:43;12.60;;;5.10;;
57317;SDS011;43157;50.982;18.132;2023-06-14T08:26:09;12.50;;;4.90;;
57317;SDS011;43157;50.982;18.132;2023-06-14T08:28:36;13.30;;;5.30;;
57317;SDS011;43157;50.982;18.132;2023-06-14T08:31:02;11.20;;;4.90;;
57317;SDS011;43157;50.982;18.132;2023-06-14T08:33:28;11.90;;;5.10;;
57317;SDS011;43157;50.982;18.132;2023-06-14T08:35:54;10.70;;;5.00;;
57317;SDS011;43157;50.982;18.132;2023-06-14T08:38:20;13.90;;;4.20;;
57317;SDS011;43157;50.982;18.132;2023-06-14T08:40:47;12.70;;;5.00;;
57317;SDS011;43157;50.982;18.132;2023-06-14T08:43:16;11.70;;;4.60;;
57317;SDS011;43157;50.982;18.132;2023-06-14T08:45:42;11.20;;;5.20;;
57317;SDS011;43157;50.982;18.132;2023-06-14T08:48:08;11.50;;;4.90;;
57317;SDS011;43157;50.982;18.132;2023-06-14T08:50:35;10.10;;;4.80;;
57317;SDS011;43157;50.982;18.132;2023-06-14T08:53:02;14.30;;;5.20;;
57317;SDS011;43157;50.982;18.132;2023-06-14T08:55:29;10.10;;;4.20;;
57317;SDS011;43157;50.982;18.132;2023-06-14T08:57:56;10.60;;;4.40;;
57317;SDS011;43157;50.982;18.132;2023-06-14T09:00:26;11.20;;;5.30;;
57317;SDS011;43157;50.982;18.132;2023-06-14T09:02:55;11.20;;;4.80;;
57317;SDS011;43157;50.982;18.132;2023-06-14T09:05:23;11.20;;;4.90;;
57317;SDS011;43157;50.982;18.132;2023-06-14T09:07:50;9.80;;;3.90;;
57317;SDS011;43157;50.982;18.132;2023-06-14T09:10:16;10.40;;;4.50;;
57317;SDS011;43157;50.982;18.132;2023-06-14T09:12:42;11.90;;;4.50;;
57317;SDS011;43157;50.982;18.132;2023-06-14T09:15:09;12.70;;;4.80;;
57317;SDS011;43157;50.982;18.132;2023-06-14T09:17:36;12.10;;;4.80;;
57317;SDS011;43157;50.982;18.132;2023-06-14T09:20:02;9.70;;;4.40;;
57317;SDS011;43157;50.982;18.132;2023-06-14T09:22:32;11.30;;;4.70;;
57317;SDS011;43157;50.982;18.132;2023-06-14T09:24:59;9.80;;;4.40;;
57317;SDS011;43157;50.982;18.132;2023-06-14T09:27:26;13.30;;;4.80;;
57317;SDS011;43157;50.982;18.132;2023-06-14T09:29:52;13.30;;;4.60;;
57317;SDS011;43157;50.982;18.132;2023-06-14T09:32:18;13.40;;;5.00;;
57317;SDS011;43157;50.982;18.132;2023-06-14T09:34:45;12.20;;;4.70;;
57317;SDS011;43157;50.982;18.132;2023-06-14T09:37:11;11.70;;;4.30;;
57317;SDS011;43157;50.982;18.132;2023-06-14T09:39:50;10.20;;;4.40;;
57317;SDS011;43157;50.982;18.132;2023-06-14T09:42:16;10.50;;;3.90;;
57317;SDS011;43157;50.982;18.132;2023-06-14T09:44:49;9.80;;;3.80;;
57317;SDS011;43157;50.982;18.132;2023-06-14T09:47:15;10.20;;;3.90;;
57317;SDS011;43157;50.982;18.132;2023-06-14T09:49:41;8.20;;;3.60;;
57317;SDS011;43157;50.982;18.132;2023-06-14T09:52:10;9.80;;;3.50;;
57317;SDS011;43157;50.982;18.132;2023-06-14T09:54:40;9.90;;;3.50;;
57317;SDS011;43157;50.982;18.132;2023-06-14T09:57:14;9.20;;;3.50;;
57317;SDS011;43157;50.982;18.132;2023-06-14T09:59:42;8.30;;;3.50;;
57317;SDS011;43157;50.982;18.132;2023-06-14T10:02:12;9.40;;;3.80;;
57317;SDS011;43157;50.982;18.132;2023-06-14T10:04:46;9.30;;;3.70;;
57317;SDS011;43157;50.982;18.132;2023-06-14T10:07:14;10.00;;;4.20;;
57317;SDS011;43157;50.982;18.132;2023-06-14T10:09:45;9.40;;;4.00;;
57317;SDS011;43157;50.982;18.132;2023-06-14T10:12:18;11.50;;;4.00;;
57317;SDS011;43157;50.982;18.132;2023-06-14T10:14:51;9.80;;;3.70;;
57317;SDS011;43157;50.982;18.132;2023-06-14T10:22:32;10.70;;;3.40;;
57317;SDS011;43157;50.982;18.132;2023-06-14T10:25:27;9.90;;;3.90;;
57317;SDS011;43157;50.982;18.132;2023-06-14T10:33:29;9.40;;;4.20;;
57317;SDS011;43157;50.982;18.132;2023-06-14T10:36:08;11.20;;;4.30;;
57317;SDS011;43157;50.982;18.132;2023-06-14T10:38:34;11.00;;;3.70;;
57317;SDS011;43157;50.982;18.132;2023-06-14T10:41:02;10.20;;;4.40;;
57317;SDS011;43157;50.982;18.132;2023-06-14T10:43:30;12.60;;;4.00;;
57317;SDS011;43157;50.982;18.132;2023-06-14T10:46:17;10.90;;;3.80;;
57317;SDS011;43157;50.982;18.132;2023-06-14T10:48:48;11.00;;;4.10;;
57317;SDS011;43157;50.982;18.132;2023-06-14T10:51:15;9.70;;;3.90;;
57317;SDS011;43157;50.982;18.132;2023-06-14T10:53:48;13.00;;;4.60;;
57317;SDS011;43157;50.982;18.132;2023-06-14T10:58:52;8.90;;;3.60;;
57317;SDS011;43157;50.982;18.132;2023-06-14T11:01:19;11.30;;;4.30;;
57317;SDS011;43157;50.982;18.132;2023-06-14T11:04:00;9.60;;;4.10;;
57317;SDS011;43157;50.982;18.132;2023-06-14T11:06:48;11.40;;;3.90;;
57317;SDS011;43157;50.982;18.132;2023-06-14T11:12:09;11.20;;;3.90;;
57317;SDS011;43157;50.982;18.132;2023-06-14T11:14:38;13.00;;;3.70;;
57317;SDS011;43157;50.982;18.132;2023-06-14T11:17:04;10.30;;;3.70;;
57317;SDS011;43157;50.982;18.132;2023-06-14T11:19:31;9.30;;;3.70;;
57317;SDS011;43157;50.982;18.132;2023-06-14T11:21:57;9.90;;;3.50;;
57317;SDS011;43157;50.982;18.132;2023-06-14T11:24:23;10.30;;;4.40;;
57317;SDS011;43157;50.982;18.132;2023-06-14T11:26:49;9.90;;;4.30;;
57317;SDS011;43157;50.982;18.132;2023-06-14T11:29:15;10.20;;;4.80;;
57317;SDS011;43157;50.982;18.132;2023-06-14T11:31:46;8.80;;;4.10;;
57317;SDS011;43157;50.982;18.132;2023-06-14T11:34:12;11.30;;;4.40;;
57317;SDS011;43157;50.982;18.132;2023-06-14T11:36:39;10.30;;;4.40;;
57317;SDS011;43157;50.982;18.132;2023-06-14T11:39:06;17.90;;;5.10;;
57317;SDS011;43157;50.982;18.132;2023-06-14T11:41:39;10.00;;;4.40;;
57317;SDS011;43157;50.982;18.132;2023-06-14T11:44:06;9.80;;;4.30;;
57317;SDS011;43157;50.982;18.132;2023-06-14T11:46:32;10.00;;;4.50;;
57317;SDS011;43157;50.982;18.132;2023-06-14T11:48:59;12.30;;;5.00;;
57317;SDS011;43157;50.982;18.132;2023-06-14T11:51:29;10.20;;;4.30;;
57317;SDS011;43157;50.982;18.132;2023-06-14T11:53:57;10.80;;;4.50;;
57317;SDS011;43157;50.982;18.132;2023-06-14T11:56:23;11.20;;;4.50;;
57317;SDS011;43157;50.982;18.132;2023-06-14T11:58:51;9.60;;;4.80;;
57317;SDS011;43157;50.982;18.132;2023-06-14T12:01:19;9.70;;;4.60;;
57317;SDS011;43157;50.982;18.132;2023-06-14T12:03:51;9.70;;;4.50;;
57317;SDS011;43157;50.982;18.132;2023-06-14T12:06:25;11.00;;;4.00;;
57317;SDS011;43157;50.982;18.132;2023-06-14T12:08:57;10.60;;;4.70;;
57317;SDS011;43157;50.982;18.132;2023-06-14T12:11:22;10.70;;;4.60;;
57317;SDS011;43157;50.982;18.132;2023-06-14T12:13:48;11.00;;;4.60;;
57317;SDS011;43157;50.982;18.132;2023-06-14T12:16:14;10.70;;;4.30;;
57317;SDS011;43157;50.982;18.132;2023-06-14T12:18:41;13.30;;;5.00;;
57317;SDS011;43157;50.982;18.132;2023-06-14T12:21:09;11.40;;;5.50;;
57317;SDS011;43157;50.982;18.132;2023-06-14T12:23:46;11.40;;;5.10;;
57317;SDS011;43157;50.982;18.132;2023-06-14T12:26:13;14.30;;;6.90;;
57317;SDS011;43157;50.982;18.132;2023-06-14T12:28:40;15.90;;;6.50;;
57317;SDS011;43157;50.982;18.132;2023-06-14T12:31:08;12.90;;;6.60;;
57317;SDS011;43157;50.982;18.132;2023-06-14T12:33:34;11.60;;;5.80;;
57317;SDS011;43157;50.982;18.132;2023-06-14T12:36:03;12.20;;;5.40;;
57317;SDS011;43157;50.982;18.132;2023-06-14T12:38:30;11.50;;;5.60;;
57317;SDS011;43157;50.982;18.132;2023-06-14T12:40:56;15.50;;;6.40;;
57317;SDS011;43157;50.982;18.132;2023-06-14T12:43:23;12.60;;;6.10;;
57317;SDS011;43157;50.982;18.132;2023-06-14T12:45:50;11.10;;;5.30;;
57317;SDS011;43157;50.982;18.132;2023-06-14T12:48:16;19.30;;;6.30;;
57317;SDS011;43157;50.982;18.132;2023-06-14T12:50:42;15.70;;;6.50;;
57317;SDS011;43157;50.982;18.132;2023-06-14T12:53:08;13.60;;;5.80;;
57317;SDS011;43157;50.982;18.132;2023-06-14T12:55:34;10.50;;;5.00;;
57317;SDS011;43157;50.982;18.132;2023-06-14T12:58:01;10.70;;;4.60;;
57317;SDS011;43157;50.982;18.132;2023-06-14T13:00:30;10.30;;;4.30;;
57317;SDS011;43157;50.982;18.132;2023-06-14T13:02:56;10.70;;;4.70;;
57317;SDS011;43157;50.982;18.132;2023-06-14T13:05:22;9.40;;;4.40;;
57317;SDS011;43157;50.982;18.132;2023-06-14T13:07:49;11.10;;;4.50;;
57317;SDS011;43157;50.982;18.132;2023-06-14T13:10:16;9.50;;;3.90;;
57317;SDS011;43157;50.982;18.132;2023-06-14T13:12:42;9.30;;;4.30;;
57317;SDS011;43157;50.982;18.132;2023-06-14T13:15:09;9.60;;;4.40;;
57317;SDS011;43157;50.982;18.132;2023-06-14T13:17:35;11.50;;;3.50;;
57317;SDS011;43157;50.982;18.132;2023-06-14T13:20:05;8.10;;;2.20;;
57317;SDS011;43157;50.982;18.132;2023-06-14T13:22:32;9.80;;;3.80;;
57317;SDS011;43157;50.982;18.132;2023-06-14T13:24:58;7.70;;;3.20;;
57317;SDS011;43157;50.982;18.132;2023-06-14T13:27:25;7.80;;;2.90;;
57317;SDS011;43157;50.982;18.132;2023-06-14T13:29:51;7.00;;;2.60;;
57317;SDS011;43157;50.982;18.132;2023-06-14T13:32:17;10.00;;;3.50;;
57317;SDS011;43157;50.982;18.132;2023-06-14T13:34:44;9.40;;;3.60;;
57317;SDS011;43157;50.982;18.132;2023-06-14T13:37:10;6.90;;;2.50;;
57317;SDS011;43157;50.982;18.132;2023-06-14T13:39:36;8.10;;;2.50;;
57317;SDS011;43157;50.982;18.132;2023-06-14T13:42:03;7.30;;;2.70;;
57317;SDS011;43157;50.982;18.132;2023-06-14T13:44:29;8.40;;;3.40;;
57317;SDS011;43157;50.982;18.132;2023-06-14T13:46:55;7.00;;;2.20;;
57317;SDS011;43157;50.982;18.132;2023-06-14T13:49:22;7.00;;;1.80;;
57317;SDS011;43157;50.982;18.132;2023-06-14T13:51:48;5.80;;;1.70;;
57317;SDS011;43157;50.982;18.132;2023-06-14T13:54:14;7.40;;;1.60;;
57317;SDS011;43157;50.982;18.132;2023-06-14T13:56:41;6.00;;;1.70;;
57317;SDS011;43157;50.982;18.132;2023-06-14T13:59:07;4.80;;;1.50;;
57317;SDS011;43157;50.982;18.132;2023-06-14T14:01:33;4.70;;;1.60;;
57317;SDS011;43157;50.982;18.132;2023-06-14T14:03:59;4.70;;;1.10;;
57317;SDS011;43157;50.982;18.132;2023-06-14T14:06:26;5.80;;;1.50;;
57317;SDS011;43157;50.982;18.132;2023-06-14T14:08:52;4.40;;;1.10;;
57317;SDS011;43157;50.982;18.132;2023-06-14T14:11:19;8.30;;;1.70;;
57317;SDS011;43157;50.982;18.132;2023-06-14T14:13:45;4.40;;;0.90;;
57317;SDS011;43157;50.982;18.132;2023-06-14T14:16:12;5.50;;;1.30;;
57317;SDS011;43157;50.982;18.132;2023-06-14T14:18:38;4.70;;;1.50;;
57317;SDS011;43157;50.982;18.132;2023-06-14T14:21:04;5.40;;;1.40;;
57317;SDS011;43157;50.982;18.132;2023-06-14T14:23:31;6.00;;;1.90;;
57317;SDS011;43157;50.982;18.132;2023-06-14T14:25:57;5.10;;;1.50;;
57317;SDS011;43157;50.982;18.132;2023-06-14T14:28:24;5.20;;;1.80;;
57317;SDS011;43157;50.982;18.132;2023-06-14T14:30:50;7.30;;;2.30;;
57317;SDS011;43157;50.982;18.132;2023-06-14T14:33:16;8.10;;;2.80;;
57317;SDS011;43157;50.982;18.132;2023-06-14T14:35:43;6.50;;;2.60;;
57317;SDS011;43157;50.982;18.132;2023-06-14T14:38:11;9.00;;;2.80;;
57317;SDS011;43157;50.982;18.132;2023-06-14T14:40:39;8.90;;;2.50;;
57317;SDS011;43157;50.982;18.132;2023-06-14T14:43:05;7.90;;;3.10;;
57317;SDS011;43157;50.982;18.132;2023-06-14T14:45:31;7.00;;;2.60;;
57317;SDS011;43157;50.982;18.132;2023-06-14T14:47:57;9.60;;;2.70;;
57317;SDS011;43157;50.982;18.132;2023-06-14T14:50:24;7.60;;;2.90;;
57317;SDS011;43157;50.982;18.132;2023-06-14T14:52:50;8.20;;;3.10;;
57317;SDS011;43157;50.982;18.132;2023-06-14T14:55:17;9.50;;;2.80;;
57317;SDS011;43157;50.982;18.132;2023-06-14T14:57:43;7.80;;;3.10;;